Time;durP1;ratioP1;P1;durP2;ratioP2;P2;SDS_P1;SDS_P2;PMS_P1;PMS_P2;Temp;Humidity;BMP_temperature;BMP_pressure;BME280_temperature;BME280_humidity;BME280_pressure;Samples;Min_cycle;Max_cycle;Signal;HPM_P1;HPM_P2
2023/07/18 00:01:56;;;;;;;4.82;2.40;;;;;;;12.69;100.00;99127.03;4183766;28;20482;-68
2023/07/18 00:03:56;;;;;;;3.50;2.40;;;;;;;12.62;100.00;99136.88;4183252;28;20044;-68
2023/07/18 00:05:58;;;;;;;3.13;2.20;;;;;;;12.64;100.00;99128.16;4179175;28;20024;-68
2023/07/18 00:07:58;;;;;;;4.53;2.47;;;;;;;12.68;100.00;99134.56;4183815;28;20071;-68
2023/07/18 00:09:59;;;;;;;5.13;2.60;;;;;;;12.74;100.00;99132.25;4182255;28;20262;-68
2023/07/18 00:11:59;;;;;;;3.92;2.35;;;;;;;12.72;100.00;99134.63;4180769;28;20064;-68
2023/07/18 00:14:00;;;;;;;3.85;2.50;;;;;;;12.74;100.00;99137.81;4182861;28;20045;-68
2023/07/18 00:16:00;;;;;;;3.83;2.58;;;;;;;12.61;100.00;99134.47;4180717;28;20033;-68
2023/07/18 00:18:01;;;;;;;6.15;2.38;;;;;;;12.44;100.00;99137.81;4181843;28;20037;-68
2023/07/18 00:20:09;;;;;;;5.20;2.70;;;;;;;12.31;100.00;99138.00;4176694;28;20037;-68
2023/07/18 00:22:09;;;;;;;4.97;2.30;;;;;;;12.20;100.00;99144.56;4182145;28;20036;-68
2023/07/18 00:24:10;;;;;;;4.63;2.30;;;;;;;12.08;100.00;99140.03;4181860;28;20023;-68
2023/07/18 00:26:10;;;;;;;7.15;2.70;;;;;;;11.96;100.00;99152.13;4181194;28;20121;-68
2023/07/18 00:28:10;;;;;;;5.05;2.25;;;;;;;11.84;100.00;99138.47;4179783;28;20057;-68
2023/07/18 00:30:14;;;;;;;3.38;2.42;;;;;;;11.85;100.00;99147.59;4178950;28;20055;-68
2023/07/18 00:32:14;;;;;;;5.05;2.65;;;;;;;11.82;100.00;99144.34;4183797;28;20024;-68
2023/07/18 00:34:15;;;;;;;3.97;2.63;;;;;;;11.77;100.00;99136.34;4172246;28;20082;-67
2023/07/18 00:36:15;;;;;;;4.85;2.40;;;;;;;11.75;100.00;99141.44;4182615;28;20357;-68
2023/07/18 00:38:16;;;;;;;4.07;2.17;;;;;;;11.71;100.00;99139.78;4182307;28;20025;-68
2023/07/18 00:40:16;;;;;;;4.35;2.33;;;;;;;11.69;100.00;99139.34;4174927;28;20900;-68
2023/07/18 00:42:17;;;;;;;3.85;2.45;;;;;;;11.75;100.00;99143.41;4182623;28;20108;-68
2023/07/18 00:44:17;;;;;;;6.63;2.65;;;;;;;11.76;100.00;99137.50;4180651;28;20031;-68
2023/07/18 00:46:18;;;;;;;4.57;2.95;;;;;;;11.75;100.00;99147.00;4179302;28;20017;-68
2023/07/18 00:48:19;;;;;;;4.65;2.38;;;;;;;11.75;100.00;99141.44;4184981;28;20020;-68
2023/07/18 00:50:20;;;;;;;3.92;2.28;;;;;;;11.73;100.00;99142.97;4181222;28;20079;-67
2023/07/18 00:52:21;;;;;;;4.78;2.80;;;;;;;11.71;100.00;99143.34;4182931;28;20044;-68
2023/07/18 00:54:22;;;;;;;5.22;3.00;;;;;;;11.70;100.00;99135.41;4182141;28;20045;-68
2023/07/18 00:56:23;;;;;;;5.75;2.70;;;;;;;11.67;100.00;99138.94;4184606;28;20060;-68
2023/07/18 00:58:23;;;;;;;4.47;2.50;;;;;;;11.64;100.00;99129.34;4180635;28;20091;-68
2023/07/18 01:00:23;;;;;;;4.72;2.75;;;;;;;11.65;100.00;99130.97;4181290;28;20048;-68
2023/07/18 01:02:24;;;;;;;6.10;3.00;;;;;;;11.71;100.00;99131.47;4181444;28;20422;-68
2023/07/18 01:04:25;;;;;;;5.03;3.10;;;;;;;11.78;100.00;99132.38;4180319;28;20127;-68
2023/07/18 01:06:26;;;;;;;5.05;2.55;;;;;;;11.75;100.00;99124.00;4181374;28;21100;-68
2023/07/18 01:08:26;;;;;;;3.63;2.63;;;;;;;11.81;100.00;99139.19;4179873;28;20377;-67
2023/07/18 01:10:27;;;;;;;4.63;2.67;;;;;;;11.77;100.00;99121.69;4181135;28;20044;-67
2023/07/18 01:12:27;;;;;;;6.00;2.78;;;;;;;11.77;100.00;99125.25;4183807;28;20445;-68
2023/07/18 01:14:28;;;;;;;5.47;2.67;;;;;;;11.74;100.00;99114.06;4177978;28;20037;-67
2023/07/18 01:16:28;;;;;;;6.90;2.60;;;;;;;11.69;100.00;99117.97;4180593;28;20036;-67
2023/07/18 01:18:28;;;;;;;4.38;2.60;;;;;;;11.62;100.00;99125.38;4174152;28;20076;-68
2023/07/18 01:20:30;;;;;;;5.10;2.58;;;;;;;11.53;100.00;99120.06;4182612;28;20037;-67
2023/07/18 01:22:31;;;;;;;4.25;2.50;;;;;;;11.41;100.00;99123.00;4179334;28;20087;-68
2023/07/18 01:24:31;;;;;;;4.22;2.60;;;;;;;11.31;100.00;99118.88;4177866;28;20076;-67
2023/07/18 01:26:31;;;;;;;4.80;2.80;;;;;;;11.25;100.00;99118.38;4183793;28;20032;-68
2023/07/18 01:28:32;;;;;;;4.65;2.85;;;;;;;11.18;100.00;99122.97;4182860;28;20620;-68
2023/07/18 01:30:32;;;;;;;8.35;3.05;;;;;;;11.16;100.00;99126.09;4179823;28;20041;-67
2023/07/18 01:32:33;;;;;;;3.58;2.60;;;;;;;11.13;100.00;99126.84;4183388;28;20067;-68
2023/07/18 01:34:34;;;;;;;4.72;2.53;;;;;;;11.12;100.00;99127.22;4178234;28;20094;-67
2023/07/18 01:36:35;;;;;;;5.13;2.53;;;;;;;11.10;100.00;99124.81;4178721;28;20465;-67
2023/07/18 01:38:36;;;;;;;5.28;2.42;;;;;;;11.12;100.00;99116.94;4181389;28;20036;-67
2023/07/18 01:40:36;;;;;;;4.60;2.58;;;;;;;11.10;100.00;99116.50;4178376;28;20491;-67
2023/07/18 01:42:37;;;;;;;5.75;2.47;;;;;;;11.09;100.00;99123.22;4182355;28;20445;-67
2023/07/18 01:44:37;;;;;;;5.28;2.25;;;;;;;11.09;100.00;99125.97;4179335;28;20087;-67
2023/07/18 01:46:37;;;;;;;3.50;2.42;;;;;;;11.27;100.00;99128.28;4183202;28;20033;-67
2023/07/18 01:48:38;;;;;;;5.97;2.72;;;;;;;11.27;100.00;99120.78;4181014;28;20146;-67
2023/07/18 01:50:38;;;;;;;4.28;2.42;;;;;;;11.26;100.00;99121.94;4180475;28;20068;-67
2023/07/18 01:52:39;;;;;;;5.30;2.65;;;;;;;11.15;100.00;99115.38;4173594;28;20528;-68
2023/07/18 01:54:40;;;;;;;3.83;2.30;;;;;;;11.12;100.00;99116.94;4178431;28;20063;-67
2023/07/18 01:56:40;;;;;;;6.90;2.63;;;;;;;11.15;100.00;99112.63;4182705;28;20048;-67
2023/07/18 01:58:40;;;;;;;7.13;2.88;;;;;;;11.21;100.00;99113.94;4181414;28;20036;-67
2023/07/18 02:00:40;;;;;;;3.63;2.35;;;;;;;11.18;100.00;99118.25;4179895;28;20380;-67
2023/07/18 02:02:41;;;;;;;6.57;2.58;;;;;;;11.02;100.00;99109.22;4176362;28;20397;-67
2023/07/18 02:04:42;;;;;;;5.40;2.78;;;;;;;10.90;100.00;99115.69;4180151;28;20120;-67
2023/07/18 02:06:42;;;;;;;4.35;2.80;;;;;;;10.78;100.00;99115.06;4178589;28;20040;-67
2023/07/18 02:08:42;;;;;;;7.15;2.75;;;;;;;10.76;100.00;99112.66;4181460;28;20044;-67
2023/07/18 02:10:43;;;;;;;3.33;2.22;;;;;;;10.75;100.00;99110.22;4180426;28;20119;-67
2023/07/18 02:12:43;;;;;;;3.80;2.70;;;;;;;10.67;100.00;99103.75;4178469;28;20115;-67
2023/07/18 02:14:43;;;;;;;5.13;2.65;;;;;;;10.69;100.00;99110.53;4179986;28;20507;-67
2023/07/18 02:16:44;;;;;;;4.32;2.65;;;;;;;10.71;100.00;99118.47;4181416;28;20072;-67
2023/07/18 02:18:44;;;;;;;5.50;2.70;;;;;;;10.66;100.00;99107.69;4180096;28;20144;-67
2023/07/18 02:20:45;;;;;;;5.15;3.00;;;;;;;10.61;100.00;99105.22;4178897;28;20051;-67
2023/07/18 02:22:47;;;;;;;6.05;2.50;;;;;;;10.58;100.00;99114.22;4180882;28;20109;-67
2023/07/18 02:24:50;;;;;;;4.03;2.47;;;;;;;10.53;100.00;99109.78;4182441;28;20049;-67
2023/07/18 02:26:51;;;;;;;3.95;2.63;;;;;;;10.51;100.00;99120.44;4179171;28;20500;-67
2023/07/18 02:28:51;;;;;;;4.45;2.65;;;;;;;10.47;100.00;99119.53;4179815;28;20049;-67
2023/07/18 02:30:52;;;;;;;4.28;2.72;;;;;;;10.49;100.00;99110.88;4181423;28;20049;-67
2023/07/18 02:32:53;;;;;;;9.90;3.55;;;;;;;10.47;100.00;99111.25;4175935;28;20043;-67
2023/07/18 02:34:53;;;;;;;8.80;3.38;;;;;;;10.49;100.00;99119.16;4177707;28;20045;-67
2023/07/18 02:36:54;;;;;;;9.18;2.92;;;;;;;10.46;100.00;99119.91;4181129;28;20045;-67
2023/07/18 02:38:54;;;;;;;3.92;2.78;;;;;;;10.39;100.00;99120.53;4182038;28;20032;-69
2023/07/18 02:40:54;;;;;;;9.38;3.88;;;;;;;10.33;100.00;99111.72;4183083;28;20061;-67
2023/07/18 02:42:54;;;;;;;10.02;3.28;;;;;;;10.28;100.00;99120.31;4183835;28;20093;-67
2023/07/18 02:44:55;;;;;;;6.13;2.83;;;;;;;10.15;100.00;99110.47;4184433;28;20494;-67
2023/07/18 02:46:55;;;;;;;4.70;2.92;;;;;;;10.08;100.00;99116.63;4187149;28;20397;-67
2023/07/18 02:48:55;;;;;;;5.38;3.05;;;;;;;10.03;100.00;99122.47;4178110;28;20081;-67
2023/07/18 02:50:56;;;;;;;5.70;2.88;;;;;;;9.93;100.00;99114.72;4182937;28;20100;-67
2023/07/18 02:52:58;;;;;;;7.15;3.25;;;;;;;9.84;100.00;99120.41;4181266;28;20044;-67
2023/07/18 02:54:58;;;;;;;9.00;2.88;;;;;;;9.77;100.00;99124.97;4183826;28;20385;-68
2023/07/18 02:56:59;;;;;;;3.63;2.65;;;;;;;9.69;100.00;99123.19;4182749;28;20041;-67
2023/07/18 02:59:00;;;;;;;5.18;2.58;;;;;;;9.66;100.00;99132.19;4184011;28;20527;-67
2023/07/18 03:01:01;;;;;;;5.22;2.60;;;;;;;9.62;100.00;99125.78;4178725;28;20048;-67
2023/07/18 03:03:02;;;;;;;7.40;2.90;;;;;;;9.53;100.00;99128.72;4182103;28;20111;-67
2023/07/18 03:05:03;;;;;;;8.15;3.60;;;;;;;9.44;100.00;99120.59;4178597;28;20512;-67
2023/07/18 03:07:03;;;;;;;5.30;2.67;;;;;;;9.35;100.00;99122.72;4186134;28;20049;-67
2023/07/18 03:09:05;;;;;;;3.58;2.28;;;;;;;9.30;100.00;99125.75;4184759;28;20044;-67
2023/07/18 03:11:06;;;;;;;4.65;2.50;;;;;;;9.26;100.00;99125.63;4181691;28;20380;-67
2023/07/18 03:13:06;;;;;;;4.72;2.70;;;;;;;9.22;100.00;99124.75;4184345;28;20040;-67
2023/07/18 03:15:09;;;;;;;3.78;2.53;;;;;;;9.23;100.00;99122.78;4182399;28;20024;-67
2023/07/18 03:17:09;;;;;;;4.32;2.97;;;;;;;9.31;100.00;99129.28;4184376;28;20455;-67
2023/07/18 03:19:10;;;;;;;4.00;2.38;;;;;;;9.34;100.00;99123.84;4187008;28;20086;-67
2023/07/18 03:21:10;;;;;;;3.83;2.50;;;;;;;9.32;100.00;99122.63;4176784;28;20038;-67
2023/07/18 03:23:10;;;;;;;3.78;2.60;;;;;;;9.36;100.00;99129.06;4182224;28;20044;-67
2023/07/18 03:25:11;;;;;;;8.73;2.90;;;;;;;9.46;100.00;99132.09;4182441;28;20183;-67
2023/07/18 03:27:13;;;;;;;7.22;2.90;;;;;;;9.56;100.00;99126.03;4182609;28;20115;-67
2023/07/18 03:29:13;;;;;;;6.63;3.08;;;;;;;9.59;100.00;99130.03;4183818;28;20433;-67
2023/07/18 03:31:13;;;;;;;5.07;2.50;;;;;;;9.60;100.00;99128.91;4182470;28;20098;-67
2023/07/18 03:33:15;;;;;;;3.72;2.50;;;;;;;9.58;100.00;99120.94;4182370;28;20076;-67
2023/07/18 03:35:15;;;;;;;4.82;3.25;;;;;;;9.55;100.00;99127.19;4183932;28;20048;-67
2023/07/18 03:37:15;;;;;;;5.20;3.00;;;;;;;9.51;100.00;99117.19;4177890;28;20045;-67
2023/07/18 03:39:16;;;;;;;6.28;2.80;;;;;;;9.44;100.00;99125.31;4180763;28;20044;-67
2023/07/18 03:41:16;;;;;;;3.80;3.00;;;;;;;9.40;100.00;99124.41;4176912;28;20045;-67
2023/07/18 03:43:16;;;;;;;7.03;2.47;;;;;;;9.29;100.00;99119.41;4185893;28;20057;-67
2023/07/18 03:45:17;;;;;;;4.57;3.03;;;;;;;9.27;100.00;99112.66;4183032;28;20487;-67
2023/07/18 03:47:17;;;;;;;7.43;2.80;;;;;;;9.21;100.00;99114.84;4183727;28;20056;-67
2023/07/18 03:49:17;;;;;;;7.57;2.70;;;;;;;9.31;100.00;99115.50;4181617;28;20531;-67
2023/07/18 03:51:18;;;;;;;4.55;3.10;;;;;;;9.35;100.00;99124.66;4181960;28;20473;-67
2023/07/18 03:53:19;;;;;;;6.05;2.88;;;;;;;9.37;100.00;99117.66;4184174;28;20219;-67
2023/07/18 03:55:20;;;;;;;3.53;2.75;;;;;;;9.31;100.00;99112.72;4179814;28;20517;-67
2023/07/18 03:57:20;;;;;;;5.30;3.05;;;;;;;9.20;100.00;99112.44;4183527;28;20053;-67
2023/07/18 03:59:21;;;;;;;8.10;3.00;;;;;;;9.15;100.00;99120.97;4179108;28;20025;-67
2023/07/18 04:01:21;;;;;;;7.13;2.80;;;;;;;9.15;100.00;99118.22;4184607;28;20544;-67
2023/07/18 04:03:21;;;;;;;7.13;2.80;;;;;;;9.13;100.00;99121.34;4180181;28;20057;-67
2023/07/18 04:05:22;;;;;;;5.70;2.83;;;;;;;9.17;100.00;99122.22;4179835;28;20033;-67
2023/07/18 04:07:23;;;;;;;6.07;3.30;;;;;;;9.19;100.00;99128.22;4182721;28;20049;-67
2023/07/18 04:09:24;;;;;;;5.00;3.17;;;;;;;9.21;100.00;99122.34;4179396;28;20151;-67
2023/07/18 04:11:24;;;;;;;6.50;2.70;;;;;;;9.24;100.00;99127.13;4181808;28;20068;-67
2023/07/18 04:13:25;;;;;;;4.80;2.97;;;;;;;9.25;100.00;99135.06;4179596;28;20048;-67
2023/07/18 04:15:25;;;;;;;6.35;3.90;;;;;;;9.28;100.00;99133.56;4182849;28;20119;-67
2023/07/18 04:17:27;;;;;;;5.88;3.20;;;;;;;9.30;100.00;99134.03;4183361;28;20434;-67
2023/07/18 04:19:29;;;;;;;5.68;3.10;;;;;;;9.33;100.00;99129.75;4180883;28;20271;-67
2023/07/18 04:21:30;;;;;;;7.07;3.28;;;;;;;9.34;100.00;99126.63;4180683;28;20045;-67
2023/07/18 04:23:31;;;;;;;3.60;2.38;;;;;;;9.37;100.00;99119.59;4180664;28;20408;-67
2023/07/18 04:25:34;;;;;;;5.55;3.38;;;;;;;9.44;100.00;99119.81;4182824;28;20056;-67
2023/07/18 04:27:35;;;;;;;7.30;3.05;;;;;;;9.53;100.00;99117.66;4182736;28;20325;-67
2023/07/18 04:29:35;;;;;;;9.05;3.30;;;;;;;9.66;100.00;99112.84;4181918;28;20048;-67
2023/07/18 04:31:35;;;;;;;4.93;3.13;;;;;;;9.80;100.00;99113.19;4178983;28;20064;-67
2023/07/18 04:33:37;;;;;;;6.00;3.05;;;;;;;9.95;100.00;99114.34;4177551;28;20603;-67
2023/07/18 04:35:39;;;;;;;4.72;2.92;;;;;;;10.07;100.00;99123.34;4181462;28;20124;-67
2023/07/18 04:37:40;;;;;;;4.13;2.88;;;;;;;10.20;100.00;99118.50;4176545;28;20130;-67
2023/07/18 04:39:40;;;;;;;5.65;3.30;;;;;;;10.27;100.00;99113.19;4177895;28;20075;-67
2023/07/18 04:41:40;;;;;;;10.52;3.63;;;;;;;10.40;100.00;99113.84;4180553;28;20060;-67
2023/07/18 04:43:40;;;;;;;4.20;2.58;;;;;;;10.48;100.00;99112.84;4180281;28;20296;-67
2023/07/18 04:45:44;;;;;;;6.95;3.30;;;;;;;10.64;100.00;99115.56;4178931;28;20044;-67
2023/07/18 04:47:44;;;;;;;4.53;2.92;;;;;;;10.76;100.00;99117.38;4176369;28;20424;-67
2023/07/18 04:49:44;;;;;;;6.85;3.00;;;;;;;10.94;100.00;99124.09;4182678;28;20051;-67
2023/07/18 04:51:45;;;;;;;13.80;3.63;;;;;;;11.04;100.00;99120.72;4178880;28;20052;-67
2023/07/18 04:53:45;;;;;;;15.10;4.60;;;;;;;11.14;100.00;99122.09;4175672;28;20071;-67
2023/07/18 04:55:50;;;;;;;10.48;3.63;;;;;;;11.21;100.00;99122.25;4179076;28;20085;-67
2023/07/18 04:57:50;;;;;;;13.05;3.88;;;;;;;11.30;100.00;99122.81;4180088;28;20037;-67
2023/07/18 04:59:51;;;;;;;16.73;4.43;;;;;;;11.35;100.00;99114.22;4181865;28;20701;-67
2023/07/18 05:01:54;;;;;;;15.70;4.55;;;;;;;11.43;100.00;99123.44;4181870;28;20044;-67
2023/07/18 05:03:58;;;;;;;10.73;4.13;;;;;;;11.47;100.00;99119.56;4178170;28;20419;-67
2023/07/18 05:05:59;;;;;;;10.20;3.85;;;;;;;11.47;100.00;99124.31;4183696;28;20136;-67
2023/07/18 05:07:59;;;;;;;22.30;5.75;;;;;;;11.50;100.00;99118.00;4176555;28;21272;-67
2023/07/18 05:10:00;;;;;;;12.38;3.75;;;;;;;11.60;100.00;99119.41;4175535;28;20051;-67
2023/07/18 05:12:00;;;;;;;16.70;4.68;;;;;;;11.74;100.00;99122.41;4176281;28;20152;-67
2023/07/18 05:14:00;;;;;;;16.20;5.25;;;;;;;11.89;100.00;99120.69;4175029;28;20060;-67
2023/07/18 05:16:01;;;;;;;9.57;3.92;;;;;;;11.97;100.00;99119.63;4177550;28;20052;-68
2023/07/18 05:18:03;;;;;;;12.30;3.88;;;;;;;12.06;100.00;99125.72;4176945;28;20159;-68
2023/07/18 05:20:04;;;;;;;9.00;3.80;;;;;;;12.13;100.00;99116.72;4178802;28;20442;-67
2023/07/18 05:22:05;;;;;;;5.57;3.17;;;;;;;12.20;100.00;99120.41;4177070;28;20403;-67
2023/07/18 05:24:05;;;;;;;6.78;4.18;;;;;;;12.26;100.00;99118.94;4180049;28;20100;-67
2023/07/18 05:26:07;;;;;;;9.75;3.45;;;;;;;12.33;100.00;99118.22;4178364;28;20025;-67
2023/07/18 05:28:08;;;;;;;8.45;3.65;;;;;;;12.40;100.00;99114.75;4175554;28;20035;-67
2023/07/18 05:30:16;;;;;;;11.52;3.70;;;;;;;12.48;100.00;99120.00;4176317;28;20472;-67
2023/07/18 05:32:17;;;;;;;8.18;3.70;;;;;;;12.55;100.00;99113.78;4179103;28;20028;-67
2023/07/18 05:34:17;;;;;;;9.73;3.70;;;;;;;12.64;100.00;99115.09;4176251;28;20052;-67
2023/07/18 05:36:17;;;;;;;11.50;3.30;;;;;;;12.72;100.00;99115.97;4177309;28;20108;-67
2023/07/18 05:38:18;;;;;;;9.35;4.07;;;;;;;12.79;100.00;99120.81;4178815;28;20029;-67
2023/07/18 05:40:18;;;;;;;12.48;4.30;;;;;;;12.88;100.00;99116.59;4177324;28;20013;-67
2023/07/18 05:42:18;;;;;;;7.13;3.30;;;;;;;12.99;100.00;99115.91;4178551;28;20127;-67
2023/07/18 05:44:19;;;;;;;7.78;3.03;;;;;;;13.08;100.00;99116.44;4177867;28;20374;-67
2023/07/18 05:46:19;;;;;;;13.65;4.57;;;;;;;13.16;100.00;99118.13;4178004;28;20017;-67
2023/07/18 05:48:19;;;;;;;6.85;3.67;;;;;;;13.25;100.00;99118.66;4177831;28;20121;-68
2023/07/18 05:50:20;;;;;;;6.88;2.97;;;;;;;13.35;100.00;99125.50;4178094;28;20431;-67
2023/07/18 05:52:20;;;;;;;7.45;3.80;;;;;;;13.45;100.00;99119.25;4176416;28;20053;-67
2023/07/18 05:54:21;;;;;;;10.32;3.10;;;;;;;13.52;100.00;99116.53;4179248;28;20055;-67
2023/07/18 05:56:21;;;;;;;6.00;3.22;;;;;;;13.60;100.00;99109.06;4178035;28;20052;-68
2023/07/18 05:58:21;;;;;;;4.45;2.80;;;;;;;13.70;100.00;99111.13;4177705;28;20116;-67
2023/07/18 06:00:22;;;;;;;10.05;3.03;;;;;;;13.78;100.00;99110.03;4178230;28;20036;-67
2023/07/18 06:02:22;;;;;;;7.45;2.47;;;;;;;13.91;100.00;99116.09;4176982;28;20076;-67
2023/07/18 06:04:23;;;;;;;7.45;2.95;;;;;;;14.01;100.00;99110.63;4178072;28;20037;-67
2023/07/18 06:06:23;;;;;;;7.88;3.17;;;;;;;14.13;100.00;99103.94;4179253;28;20047;-67
2023/07/18 06:08:24;;;;;;;6.97;2.35;;;;;;;14.23;100.00;99103.22;4175943;28;20149;-67
2023/07/18 06:10:24;;;;;;;13.43;2.90;;;;;;;14.31;100.00;99110.44;4177018;28;20059;-68
2023/07/18 06:12:25;;;;;;;5.20;2.80;;;;;;;14.40;100.00;99107.31;4178784;28;20523;-67
2023/07/18 06:14:26;;;;;;;6.50;2.65;;;;;;;14.49;100.00;99109.78;4179577;28;20052;-67
2023/07/18 06:16:27;;;;;;;6.30;3.00;;;;;;;14.55;100.00;99109.00;4182827;28;20036;-67
2023/07/18 06:18:28;;;;;;;3.97;2.70;;;;;;;14.61;99.66;99115.81;4181618;28;20087;-67
2023/07/18 06:20:28;;;;;;;6.90;3.15;;;;;;;14.70;98.18;99109.09;4182601;28;20110;-67
2023/07/18 06:22:29;;;;;;;5.82;2.80;;;;;;;14.81;97.50;99104.34;4181974;28;20151;-67
2023/07/18 06:24:29;;;;;;;5.55;2.38;;;;;;;14.93;95.93;99108.78;4180296;28;20115;-67
2023/07/18 06:26:29;;;;;;;6.35;2.83;;;;;;;15.04;97.62;99115.19;4184658;28;20051;-67
2023/07/18 06:28:30;;;;;;;5.38;2.33;;;;;;;15.08;96.92;99111.25;4183515;28;20041;-68
2023/07/18 06:30:31;;;;;;;3.67;2.33;;;;;;;15.16;97.17;99112.06;4183387;28;20481;-68
2023/07/18 06:32:31;;;;;;;6.22;2.30;;;;;;;15.21;95.94;99114.47;4184123;28;20051;-68
2023/07/18 06:34:33;;;;;;;3.45;2.10;;;;;;;15.27;95.71;99112.09;4176598;28;20040;-67
2023/07/18 06:36:33;;;;;;;4.25;2.13;;;;;;;15.34;95.83;99110.13;4178728;28;20384;-68
2023/07/18 06:38:34;;;;;;;6.47;1.98;;;;;;;15.43;94.73;99102.16;4183106;28;20380;-67
2023/07/18 06:40:34;;;;;;;4.70;2.22;;;;;;;15.50;93.06;99104.19;4182131;28;20124;-68
2023/07/18 06:42:34;;;;;;;4.43;2.33;;;;;;;15.57;92.59;99108.97;4182595;28;20055;-68
2023/07/18 06:44:35;;;;;;;5.55;2.08;;;;;;;15.69;92.70;99094.66;4179514;28;20420;-68
2023/07/18 06:46:35;;;;;;;5.60;1.90;;;;;;;15.75;91.51;99090.28;4183952;28;20087;-68
2023/07/18 06:48:35;;;;;;;3.03;2.00;;;;;;;15.82;90.06;99089.50;4181588;28;20041;-68
2023/07/18 06:50:36;;;;;;;4.93;1.70;;;;;;;15.93;89.79;99093.09;4182665;28;20477;-68
2023/07/18 06:52:36;;;;;;;4.28;2.00;;;;;;;16.08;88.87;99100.25;4184549;28;20052;-68
2023/07/18 06:54:36;;;;;;;5.10;2.13;;;;;;;16.15;87.00;99094.69;4184788;28;20037;-68
2023/07/18 06:56:39;;;;;;;3.72;2.10;;;;;;;16.23;85.77;99092.66;4180217;28;20485;-68
2023/07/18 06:58:39;;;;;;;6.13;2.67;;;;;;;16.28;85.20;99092.25;4184396;28;20032;-67
2023/07/18 07:00:39;;;;;;;3.90;2.15;;;;;;;16.35;86.15;99085.84;4184202;28;20051;-68
2023/07/18 07:02:40;;;;;;;3.47;1.70;;;;;;;16.43;84.88;99079.06;4180565;28;20052;-68
2023/07/18 07:04:40;;;;;;;5.05;2.10;;;;;;;16.47;85.60;99072.28;4179964;28;20359;-68
2023/07/18 07:06:43;;;;;;;4.80;2.30;;;;;;;16.50;85.07;99073.47;4185071;28;20055;-68
2023/07/18 07:08:44;;;;;;;7.13;2.60;;;;;;;16.53;84.58;99072.63;4185848;28;20350;-68
2023/07/18 07:10:45;;;;;;;3.38;1.95;;;;;;;16.61;83.65;99062.25;4179777;28;20040;-68
2023/07/18 07:12:45;;;;;;;4.10;2.40;;;;;;;16.77;84.10;99068.19;4183302;28;20260;-68
2023/07/18 07:14:45;;;;;;;3.72;2.17;;;;;;;16.84;83.10;99059.78;4183237;28;20033;-68
2023/07/18 07:16:46;;;;;;;8.07;2.20;;;;;;;16.91;83.33;99062.56;4185435;28;20041;-68
2023/07/18 07:18:49;;;;;;;4.22;1.98;;;;;;;16.97;82.48;99058.16;4186304;28;20094;-68
2023/07/18 07:20:50;;;;;;;3.55;1.80;;;;;;;17.04;82.08;99060.88;4182772;28;20049;-68
2023/07/18 07:22:53;;;;;;;5.93;2.00;;;;;;;17.05;79.82;99056.13;4183998;28;20356;-68
2023/07/18 07:24:54;;;;;;;6.35;1.73;;;;;;;17.05;80.10;99048.53;4176991;28;20055;-68
2023/07/18 07:26:54;;;;;;;3.58;1.90;;;;;;;17.20;80.43;99052.00;4184557;28;20346;-68
2023/07/18 07:28:55;;;;;;;4.00;2.00;;;;;;;17.31;79.09;99055.56;4183995;28;20040;-68
2023/07/18 07:30:55;;;;;;;4.65;1.80;;;;;;;17.44;78.19;99055.84;4185488;28;20045;-68
2023/07/18 07:32:55;;;;;;;5.65;2.00;;;;;;;17.52;79.28;99051.00;4183592;28;20211;-68
2023/07/18 07:34:56;;;;;;;4.15;1.80;;;;;;;17.60;79.14;99047.75;4182223;28;20047;-68
2023/07/18 07:36:56;;;;;;;4.63;1.73;;;;;;;17.67;77.59;99042.09;4183019;28;20464;-68
2023/07/18 07:38:57;;;;;;;2.97;2.00;;;;;;;17.69;76.57;99038.88;4179064;28;20115;-68
2023/07/18 07:40:57;;;;;;;5.28;1.50;;;;;;;17.76;72.12;99038.06;4184574;28;20063;-68
2023/07/18 07:42:58;;;;;;;2.10;1.17;;;;;;;17.77;72.55;99037.63;4180686;28;20465;-68
2023/07/18 07:44:58;;;;;;;2.50;1.60;;;;;;;17.81;72.15;99040.44;4179053;28;20409;-68
2023/07/18 07:46:58;;;;;;;3.17;1.65;;;;;;;17.84;71.14;99031.97;4182750;28;20033;-68
2023/07/18 07:48:58;;;;;;;4.05;1.60;;;;;;;17.89;71.45;99031.53;4183144;28;20456;-68
2023/07/18 07:51:00;;;;;;;3.00;1.73;;;;;;;17.94;70.31;99033.88;4185425;28;20496;-68
2023/07/18 07:53:01;;;;;;;2.38;1.33;;;;;;;18.11;72.11;99036.94;4181553;28;20072;-68
2023/07/18 07:55:02;;;;;;;3.40;1.45;;;;;;;18.30;68.96;99039.16;4181706;28;20045;-68
2023/07/18 07:57:03;;;;;;;3.42;1.70;;;;;;;18.43;69.31;99036.59;4181607;28;20037;-68
2023/07/18 07:59:03;;;;;;;2.83;1.38;;;;;;;18.53;67.78;99035.66;4179255;28;20380;-68
2023/07/18 08:01:04;;;;;;;3.30;1.40;;;;;;;18.67;66.90;99037.53;4182280;28;20049;-68
2023/07/18 08:03:04;;;;;;;3.83;1.30;;;;;;;18.80;67.40;99024.59;4182061;28;20037;-68
2023/07/18 08:05:04;;;;;;;2.42;1.42;;;;;;;18.77;68.05;99022.59;4181750;28;20072;-68
2023/07/18 08:07:05;;;;;;;2.20;1.50;;;;;;;18.80;66.96;99016.16;4182943;28;20045;-68
2023/07/18 08:09:05;;;;;;;2.85;1.20;;;;;;;18.83;68.58;99018.13;4183646;28;20123;-68
2023/07/18 08:11:06;;;;;;;3.85;2.08;;;;;;;18.84;68.84;99014.09;4178853;28;20069;-68
2023/07/18 08:13:06;;;;;;;2.58;1.50;;;;;;;18.82;68.37;99010.13;4181358;28;20712;-68
2023/07/18 08:15:07;;;;;;;2.30;1.10;;;;;;;18.89;69.04;99015.66;4181498;28;20346;-68
2023/07/18 08:17:07;;;;;;;3.97;1.50;;;;;;;18.91;67.38;99011.19;4185717;28;20028;-68
2023/07/18 08:19:08;;;;;;;2.03;1.58;;;;;;;19.01;67.49;99009.47;4175755;28;20663;-68
2023/07/18 08:21:08;;;;;;;3.60;1.58;;;;;;;19.15;66.60;99022.50;4182704;28;20041;-68
2023/07/18 08:23:08;;;;;;;2.13;1.38;;;;;;;19.27;65.41;99010.69;4183104;28;20076;-68
2023/07/18 08:25:09;;;;;;;2.22;1.48;;;;;;;19.23;64.98;99010.75;4178718;28;20541;-68
2023/07/18 08:27:09;;;;;;;3.10;1.50;;;;;;;19.25;65.67;99013.13;4176467;28;20060;-68
2023/07/18 08:29:09;;;;;;;2.13;1.25;;;;;;;19.29;65.11;99008.28;4181367;28;20049;-68
2023/07/18 08:31:10;;;;;;;4.47;1.67;;;;;;;19.30;64.74;99007.06;4183776;28;20537;-68
2023/07/18 08:33:10;;;;;;;3.03;1.55;;;;;;;19.32;65.60;98996.19;4182315;28;20049;-68
2023/07/18 08:35:10;;;;;;;2.83;1.60;;;;;;;19.42;64.52;99006.44;4182792;28;20488;-68
2023/07/18 08:37:11;;;;;;;2.15;1.25;;;;;;;19.48;64.78;98993.53;4179283;28;20047;-68
2023/07/18 08:39:11;;;;;;;1.70;1.20;;;;;;;19.55;64.46;98990.63;4177327;28;20057;-68
2023/07/18 08:41:13;;;;;;;3.47;1.40;;;;;;;19.75;65.00;98987.09;4183084;28;20099;-68
2023/07/18 08:43:14;;;;;;;2.65;1.55;;;;;;;19.95;63.21;98989.97;4183923;28;20041;-68
2023/07/18 08:45:15;;;;;;;2.92;1.58;;;;;;;20.06;63.76;98980.13;4181902;28;20037;-68
2023/07/18 08:47:16;;;;;;;2.72;1.60;;;;;;;20.11;63.79;98976.81;4183344;28;20445;-68
2023/07/18 08:49:17;;;;;;;4.60;1.67;;;;;;;20.16;62.47;98975.50;4181979;28;20033;-68
2023/07/18 08:51:17;;;;;;;3.30;1.50;;;;;;;20.07;61.58;98966.88;4179318;28;20039;-68
2023/07/18 08:53:18;;;;;;;3.63;1.60;;;;;;;20.04;62.62;98967.72;4182106;28;20067;-68
2023/07/18 08:55:21;;;;;;;2.55;1.48;;;;;;;20.10;65.07;98960.38;4181638;28;20397;-68
2023/07/18 08:57:22;;;;;;;3.05;1.50;;;;;;;20.17;62.16;98958.22;4181418;28;20036;-68
2023/07/18 08:59:22;;;;;;;1.67;1.08;;;;;;;20.22;63.01;98961.78;4179256;28;20622;-68
2023/07/18 09:01:24;;;;;;;6.05;1.70;;;;;;;20.37;62.31;98958.25;4180311;28;20298;-68
2023/07/18 09:03:24;;;;;;;2.38;1.52;;;;;;;20.54;60.53;98961.16;4181520;28;20218;-68
2023/07/18 09:05:33;;;;;;;2.67;1.30;;;;;;;20.57;59.87;98952.63;4179425;28;20098;-68
2023/07/18 09:07:36;;;;;;;2.00;1.40;;;;;;;20.53;60.04;98960.38;4177806;28;20045;-68
2023/07/18 09:09:36;;;;;;;2.35;1.35;;;;;;;20.57;61.08;98944.19;4181071;28;20064;-68
2023/07/18 09:11:36;;;;;;;2.67;1.40;;;;;;;20.65;59.76;98944.84;4179536;28;20040;-68
2023/07/18 09:13:38;;;;;;;2.75;1.60;;;;;;;20.75;60.06;98952.25;4180868;28;20064;-68
2023/07/18 09:15:39;;;;;;;2.53;1.42;;;;;;;20.87;58.33;98939.53;4180913;28;20190;-68
2023/07/18 09:17:39;;;;;;;2.67;1.50;;;;;;;20.96;58.75;98934.09;4181063;28;20037;-68
2023/07/18 09:19:45;;;;;;;2.42;1.52;;;;;;;21.00;58.08;98940.44;4180437;28;20037;-69
2023/07/18 09:21:45;;;;;;;2.20;1.60;;;;;;;20.91;59.10;98926.19;4182034;28;20094;-69
2023/07/18 09:23:46;;;;;;;9.07;1.90;;;;;;;20.94;59.18;98919.69;4184378;28;20298;-69
2023/07/18 09:25:47;;;;;;;2.05;1.40;;;;;;;21.04;58.26;98918.66;4176830;28;20123;-69